sensor_id;sensor_type;location;lat;lon;timestamp;pressure;altitude;pressure_sealevel;temperature;humidity
5883;BME280;2967;51.488;6.618;2022-10-30T00:04:02;101444.34;;;18.58;100.00
5883;BME280;2967;51.488;6.618;2022-10-30T00:09:05;101440.22;;;18.54;100.00
5883;BME280;2967;51.488;6.618;2022-10-30T00:14:09;101452.66;;;18.55;100.00
5883;BME280;2967;51.488;6.618;2022-10-30T00:19:11;101442.63;;;18.57;100.00
5883;BME280;2967;51.488;6.618;2022-10-30T00:24:14;101449.09;;;18.54;100.00
5883;BME280;2967;51.488;6.618;2022-10-30T00:29:20;101447.53;;;18.52;100.00
5883;BME280;2967;51.488;6.618;2022-10-30T00:34:23;101444.03;;;18.51;100.00
5883;BME280;2967;51.488;6.618;2022-10-30T00:39:26;101440.63;;;18.49;100.00
5883;BME280;2967;51.488;6.618;2022-10-30T00:44:37;101443.72;;;18.45;100.00
5883;BME280;2967;51.488;6.618;2022-10-30T00:49:49;101439.47;;;18.42;100.00
5883;BME280;2967;51.488;6.618;2022-10-30T00:54:53;101439.75;;;18.39;100.00
5883;BME280;2967;51.488;6.618;2022-10-30T01:00:01;101449.72;;;18.37;100.00
5883;BME280;2967;51.488;6.618;2022-10-30T01:05:05;101453.53;;;18.35;100.00
5883;BME280;2967;51.488;6.618;2022-10-30T01:10:10;101417.28;;;18.10;100.00
5883;BME280;2967;51.488;6.618;2022-10-30T01:15:15;101436.66;;;18.23;100.00
5883;BME280;2967;51.488;6.618;2022-10-30T01:20:38;101430.00;;;18.18;100.00
5883;BME280;2967;51.488;6.618;2022-10-30T01:25:54;101435.75;;;18.13;100.00
5883;BME280;2967;51.488;6.618;2022-10-30T01:31:12;101421.72;;;18.00;100.00
5883;BME280;2967;51.488;6.618;2022-10-30T01:36:23;101425.22;;;18.01;100.00
5883;BME280;2967;51.488;6.618;2022-10-30T01:41:27;101433.53;;;17.98;100.00
5883;BME280;2967;51.488;6.618;2022-10-30T01:46:41;101423.59;;;17.89;100.00
5883;BME280;2967;51.488;6.618;2022-10-30T01:51:55;101436.13;;;17.88;100.00
5883;BME280;2967;51.488;6.618;2022-10-30T01:57:06;101424.25;;;17.81;100.00
5883;BME280;2967;51.488;6.618;2022-10-30T02:02:14;101423.78;;;17.76;100.00
5883;BME280;2967;51.488;6.618;2022-10-30T02:07:17;101428.09;;;17.68;100.00
5883;BME280;2967;51.488;6.618;2022-10-30T02:12:24;101419.19;;;17.67;100.00
5883;BME280;2967;51.488;6.618;2022-10-30T02:17:28;101424.59;;;17.56;100.00
5883;BME280;2967;51.488;6.618;2022-10-30T02:22:33;101422.56;;;17.49;100.00
5883;BME280;2967;51.488;6.618;2022-10-30T02:27:36;101433.88;;;17.52;100.00
5883;BME280;2967;51.488;6.618;2022-10-30T02:32:39;101442.53;;;17.45;100.00
5883;BME280;2967;51.488;6.618;2022-10-30T02:37:42;101437.19;;;17.34;100.00
5883;BME280;2967;51.488;6.618;2022-10-30T02:42:50;101445.84;;;17.15;100.00
5883;BME280;2967;51.488;6.618;2022-10-30T02:47:53;101445.78;;;17.06;100.00
5883;BME280;2967;51.488;6.618;2022-10-30T02:52:58;101358.16;;;16.56;100.00
5883;BME280;2967;51.488;6.618;2022-10-30T15:59:57;101386.69;;;19.59;100.00
5883;BME280;2967;51.488;6.618;2022-10-30T16:05:16;101388.09;;;19.54;100.00
5883;BME280;2967;51.488;6.618;2022-10-30T16:10:19;101387.56;;;19.41;100.00
5883;BME280;2967;51.488;6.618;2022-10-30T16:15:27;101398.13;;;19.33;100.00
5883;BME280;2967;51.488;6.618;2022-10-30T16:20:31;101397.94;;;19.15;100.00
5883;BME280;2967;51.488;6.618;2022-10-30T16:25:34;101402.56;;;18.94;100.00
5883;BME280;2967;51.488;6.618;2022-10-30T16:30:43;101413.09;;;18.77;100.00
5883;BME280;2967;51.488;6.618;2022-10-30T16:35:46;101424.38;;;18.71;100.00
5883;BME280;2967;51.488;6.618;2022-10-30T16:40:56;101425.00;;;18.54;100.00
5883;BME280;2967;51.488;6.618;2022-10-30T16:46:30;101438.09;;;18.48;100.00
5883;BME280;2967;51.488;6.618;2022-10-30T16:51:36;101442.22;;;18.31;100.00
5883;BME280;2967;51.488;6.618;2022-10-30T16:56:43;101441.59;;;18.28;100.00
5883;BME280;2967;51.488;6.618;2022-10-30T17:01:53;101453.69;;;18.22;100.00
5883;BME280;2967;51.488;6.618;2022-10-30T17:07:14;101457.59;;;18.18;100.00
5883;BME280;2967;51.488;6.618;2022-10-30T17:12:21;101474.56;;;18.28;100.00
5883;BME280;2967;51.488;6.618;2022-10-30T17:17:30;101479.63;;;18.22;100.00
5883;BME280;2967;51.488;6.618;2022-10-30T17:22:33;101485.50;;;18.16;100.00
5883;BME280;2967;51.488;6.618;2022-10-30T17:27:54;101502.75;;;18.02;100.00
5883;BME280;2967;51.488;6.618;2022-10-30T17:32:59;101468.28;;;17.77;100.00
5883;BME280;2967;51.488;6.618;2022-10-30T17:38:03;101510.34;;;17.86;100.00
5883;BME280;2967;51.488;6.618;2022-10-30T17:43:08;101511.47;;;17.84;100.00
5883;BME280;2967;51.488;6.618;2022-10-30T17:48:14;101514.78;;;17.76;100.00
5883;BME280;2967;51.488;6.618;2022-10-30T17:53:20;101518.44;;;17.75;100.00
5883;BME280;2967;51.488;6.618;2022-10-30T17:58:23;101520.16;;;17.65;100.00
5883;BME280;2967;51.488;6.618;2022-10-30T18:03:27;101444.44;;;17.11;100.00
5883;BME280;2967;51.488;6.618;2022-10-30T18:08:29;101538.28;;;17.62;100.00
5883;BME280;2967;51.488;6.618;2022-10-30T18:13:32;101539.28;;;17.61;100.00
5883;BME280;2967;51.488;6.618;2022-10-30T18:18:36;101541.84;;;17.62;100.00
5883;BME280;2967;51.488;6.618;2022-10-30T18:23:41;101542.06;;;17.70;100.00
5883;BME280;2967;51.488;6.618;2022-10-30T18:29:01;101544.63;;;17.61;100.00
5883;BME280;2967;51.488;6.618;2022-10-30T18:34:13;101552.94;;;17.47;100.00
5883;BME280;2967;51.488;6.618;2022-10-30T18:39:17;101572.13;;;17.52;100.00
5883;BME280;2967;51.488;6.618;2022-10-30T18:44:19;101577.84;;;17.47;100.00
5883;BME280;2967;51.488;6.618;2022-10-30T18:49:23;101552.56;;;17.29;100.00
5883;BME280;2967;51.488;6.618;2022-10-30T18:54:29;101578.59;;;17.49;100.00
5883;BME280;2967;51.488;6.618;2022-10-30T18:59:32;101579.94;;;17.55;100.00
5883;BME280;2967;51.488;6.618;2022-10-30T19:04:37;101558.91;;;17.39;100.00
5883;BME280;2967;51.488;6.618;2022-10-30T19:09:40;101573.59;;;17.56;100.00
5883;BME280;2967;51.488;6.618;2022-10-30T19:14:43;101605.94;;;17.64;100.00
5883;BME280;2967;51.488;6.618;2022-10-30T19:19:47;101545.75;;;17.25;100.00
5883;BME280;2967;51.488;6.618;2022-10-30T19:24:50;101619.69;;;17.59;100.00
5883;BME280;2967;51.488;6.618;2022-10-30T19:29:53;101619.19;;;17.54;100.00
5883;BME280;2967;51.488;6.618;2022-10-30T19:34:57;101622.84;;;17.42;100.00
5883;BME280;2967;51.488;6.618;2022-10-30T19:40:14;101635.38;;;17.42;100.00
5883;BME280;2967;51.488;6.618;2022-10-30T19:45:18;101589.63;;;17.23;100.00
5883;BME280;2967;51.488;6.618;2022-10-30T19:50:28;101521.56;;;16.83;100.00
5883;BME280;2967;51.488;6.618;2022-10-30T19:55:33;101618.84;;;17.37;100.00
5883;BME280;2967;51.488;6.618;2022-10-30T20:00:38;101619.03;;;17.23;100.00
5883;BME280;2967;51.488;6.618;2022-10-30T20:05:44;101634.16;;;17.24;100.00
5883;BME280;2967;51.488;6.618;2022-10-30T20:10:49;101634.34;;;17.21;100.00
5883;BME280;2967;51.488;6.618;2022-10-30T20:15:53;101642.53;;;17.19;100.00
5883;BME280;2967;51.488;6.618;2022-10-30T20:20:59;101648.34;;;17.24;100.00
5883;BME280;2967;51.488;6.618;2022-10-30T20:26:04;101645.41;;;17.27;100.00
5883;BME280;2967;51.488;6.618;2022-10-30T20:31:15;101650.91;;;17.26;100.00
5883;BME280;2967;51.488;6.618;2022-10-30T20:36:19;101662.94;;;17.09;100.00
5883;BME280;2967;51.488;6.618;2022-10-30T20:41:23;101663.84;;;16.97;100.00
5883;BME280;2967;51.488;6.618;2022-10-30T20:46:26;101678.44;;;16.93;100.00
5883;BME280;2967;51.488;6.618;2022-10-30T20:51:30;101691.53;;;16.85;100.00
5883;BME280;2967;51.488;6.618;2022-10-30T20:56:33;101681.28;;;16.68;100.00
5883;BME280;2967;51.488;6.618;2022-10-30T21:01:36;101691.59;;;16.73;100.00
5883;BME280;2967;51.488;6.618;2022-10-30T21:06:40;101696.25;;;16.82;100.00
5883;BME280;2967;51.488;6.618;2022-10-30T21:11:42;101706.72;;;16.85;100.00
5883;BME280;2967;51.488;6.618;2022-10-30T21:16:45;101684.84;;;16.80;100.00
5883;BME280;2967;51.488;6.618;2022-10-30T21:21:49;101708.09;;;16.90;100.00
5883;BME280;2967;51.488;6.618;2022-10-30T21:26:52;101719.50;;;16.92;100.00
5883;BME280;2967;51.488;6.618;2022-10-30T21:31:55;101721.84;;;16.97;100.00
5883;BME280;2967;51.488;6.618;2022-10-30T21:36:59;101731.94;;;17.04;100.00
5883;BME280;2967;51.488;6.618;2022-10-30T21:42:01;101734.84;;;17.01;100.00
5883;BME280;2967;51.488;6.618;2022-10-30T21:47:05;101738.94;;;16.94;100.00
5883;BME280;2967;51.488;6.618;2022-10-30T21:52:10;101706.81;;;16.72;100.00
5883;BME280;2967;51.488;6.618;2022-10-30T21:57:13;101742.06;;;16.88;100.00
5883;BME280;2967;51.488;6.618;2022-10-30T22:02:16;101724.94;;;16.80;100.00
5883;BME280;2967;51.488;6.618;2022-10-30T22:07:20;101738.13;;;16.94;100.00
5883;BME280;2967;51.488;6.618;2022-10-30T22:12:23;101740.41;;;16.98;100.00
5883;BME280;2967;51.488;6.618;2022-10-30T22:17:25;101741.50;;;16.96;100.00
5883;BME280;2967;51.488;6.618;2022-10-30T22:22:35;101753.28;;;16.93;100.00
5883;BME280;2967;51.488;6.618;2022-10-30T22:27:38;101754.16;;;16.94;100.00
5883;BME280;2967;51.488;6.618;2022-10-30T22:32:41;101758.00;;;16.90;100.00
5883;BME280;2967;51.488;6.618;2022-10-30T22:37:45;101760.19;;;16.85;100.00
5883;BME280;2967;51.488;6.618;2022-10-30T22:42:48;101772.41;;;16.76;100.00
5883;BME280;2967;51.488;6.618;2022-10-30T22:47:50;101779.69;;;16.74;100.00
5883;BME280;2967;51.488;6.618;2022-10-30T22:52:57;101774.72;;;16.81;100.00
5883;BME280;2967;51.488;6.618;2022-10-30T22:58:00;101770.47;;;16.78;100.00
5883;BME280;2967;51.488;6.618;2022-10-30T23:03:03;101778.72;;;16.75;100.00
5883;BME280;2967;51.488;6.618;2022-10-30T23:08:07;101784.88;;;16.65;100.00
5883;BME280;2967;51.488;6.618;2022-10-30T23:13:10;101782.59;;;16.48;100.00
5883;BME280;2967;51.488;6.618;2022-10-30T23:18:13;101780.47;;;16.40;100.00
5883;BME280;2967;51.488;6.618;2022-10-30T23:23:16;101787.75;;;16.38;100.00
5883;BME280;2967;51.488;6.618;2022-10-30T23:28:19;101800.97;;;16.27;100.00
5883;BME280;2967;51.488;6.618;2022-10-30T23:33:22;101798.84;;;16.32;100.00
5883;BME280;2967;51.488;6.618;2022-10-30T23:38:26;101804.38;;;16.42;100.00
5883;BME280;2967;51.488;6.618;2022-10-30T23:43:29;101785.19;;;16.37;100.00
5883;BME280;2967;51.488;6.618;2022-10-30T23:48:31;101800.16;;;16.39;100.00
5883;BME280;2967;51.488;6.618;2022-10-30T23:53:35;101777.06;;;16.26;100.00
5883;BME280;2967;51.488;6.618;2022-10-30T23:58:41;101793.84;;;16.28;100.00
